sensor_id;sensor_type;location;lat;lon;timestamp;pressure;altitude;pressure_sealevel;temperature;humidity
66090;BME280;53113;45.602;11.904;2023-03-12T00:02:06;100492.87;;;11.29;50.55
66090;BME280;53113;45.602;11.904;2023-03-12T00:04:32;100501.08;;;11.26;50.27
66090;BME280;53113;45.602;11.904;2023-03-12T00:07:00;100503.00;;;11.24;50.28
66090;BME280;53113;45.602;11.904;2023-03-12T00:09:26;100500.45;;;11.23;50.19
66090;BME280;53113;45.602;11.904;2023-03-12T00:11:51;100503.21;;;11.22;49.97
66090;BME280;53113;45.602;11.904;2023-03-12T00:14:17;100498.73;;;11.20;49.61
66090;BME280;53113;45.602;11.904;2023-03-12T00:16:42;100511.25;;;11.21;49.24
66090;BME280;53113;45.602;11.904;2023-03-12T00:19:11;100522.23;;;11.21;49.09
66090;BME280;53113;45.602;11.904;2023-03-12T00:21:37;100528.37;;;11.22;48.88
66090;BME280;53113;45.602;11.904;2023-03-12T00:24:02;100535.28;;;11.21;48.71
66090;BME280;53113;45.602;11.904;2023-03-12T00:26:28;100534.34;;;11.22;48.67
66090;BME280;53113;45.602;11.904;2023-03-12T00:28:54;100531.55;;;11.22;48.69
66090;BME280;53113;45.602;11.904;2023-03-12T00:33:44;100542.55;;;11.24;48.81
66090;BME280;53113;45.602;11.904;2023-03-12T00:36:19;100543.13;;;11.23;49.00
66090;BME280;53113;45.602;11.904;2023-03-12T00:38:48;100549.52;;;11.23;49.23
66090;BME280;53113;45.602;11.904;2023-03-12T00:41:13;100555.63;;;11.22;49.34
66090;BME280;53113;45.602;11.904;2023-03-12T00:43:49;100556.73;;;11.19;49.53
66090;BME280;53113;45.602;11.904;2023-03-12T00:46:15;100558.37;;;11.19;49.73
66090;BME280;53113;45.602;11.904;2023-03-12T00:48:41;100560.36;;;11.16;50.02
66090;BME280;53113;45.602;11.904;2023-03-12T00:51:07;100565.19;;;11.16;50.27
66090;BME280;53113;45.602;11.904;2023-03-12T00:53:33;100569.88;;;11.12;50.49
66090;BME280;53113;45.602;11.904;2023-03-12T00:55:59;100578.44;;;11.12;50.66
66090;BME280;53113;45.602;11.904;2023-03-12T00:58:24;100576.16;;;11.09;50.88
66090;BME280;53113;45.602;11.904;2023-03-12T01:00:50;100578.66;;;11.07;51.02
66090;BME280;53113;45.602;11.904;2023-03-12T01:03:16;100578.17;;;11.03;51.18
66090;BME280;53113;45.602;11.904;2023-03-12T01:05:41;100574.32;;;11.01;51.49
66090;BME280;53113;45.602;11.904;2023-03-12T01:08:07;100575.42;;;10.98;51.69
66090;BME280;53113;45.602;11.904;2023-03-12T01:10:36;100578.21;;;10.94;51.81
66090;BME280;53113;45.602;11.904;2023-03-12T01:13:01;100579.41;;;10.91;51.77
66090;BME280;53113;45.602;11.904;2023-03-12T01:15:27;100577.71;;;10.88;51.82
66090;BME280;53113;45.602;11.904;2023-03-12T01:17:53;100582.33;;;10.85;51.73
66090;BME280;53113;45.602;11.904;2023-03-12T01:20:39;100575.88;;;10.81;51.56
66090;BME280;53113;45.602;11.904;2023-03-12T01:23:05;100587.23;;;10.79;51.33
66090;BME280;53113;45.602;11.904;2023-03-12T01:25:30;100587.98;;;10.76;51.07
66090;BME280;53113;45.602;11.904;2023-03-12T01:27:59;100591.42;;;10.73;50.93
66090;BME280;53113;45.602;11.904;2023-03-12T01:30:24;100599.08;;;10.73;50.71
66090;BME280;53113;45.602;11.904;2023-03-12T01:32:53;100602.83;;;10.72;50.48
66090;BME280;53113;45.602;11.904;2023-03-12T01:35:21;100604.86;;;10.73;50.41
66090;BME280;53113;45.602;11.904;2023-03-12T01:38:08;100604.40;;;10.75;50.38
66090;BME280;53113;45.602;11.904;2023-03-12T01:40:38;100605.88;;;10.76;50.33
66090;BME280;53113;45.602;11.904;2023-03-12T01:48:42;100616.88;;;10.82;50.44
66090;BME280;53113;45.602;11.904;2023-03-12T01:51:12;100620.10;;;10.84;50.61
66090;BME280;53113;45.602;11.904;2023-03-12T01:53:43;100620.52;;;10.86;50.68
66090;BME280;53113;45.602;11.904;2023-03-12T01:56:09;100623.87;;;10.86;50.61
66090;BME280;53113;45.602;11.904;2023-03-12T01:58:36;100630.34;;;10.87;50.46
66090;BME280;53113;45.602;11.904;2023-03-12T02:01:02;100633.43;;;10.88;50.45
66090;BME280;53113;45.602;11.904;2023-03-12T02:06:45;100635.38;;;10.90;50.23
66090;BME280;53113;45.602;11.904;2023-03-12T02:09:09;100640.47;;;10.94;50.31
66090;BME280;53113;45.602;11.904;2023-03-12T02:11:45;100639.69;;;10.94;50.29
66090;BME280;53113;45.602;11.904;2023-03-12T02:14:18;100645.48;;;10.95;50.14
66090;BME280;53113;45.602;11.904;2023-03-12T02:16:44;100651.27;;;10.95;50.12
66090;BME280;53113;45.602;11.904;2023-03-12T02:19:56;100648.57;;;10.96;50.16
66090;BME280;53113;45.602;11.904;2023-03-12T02:22:06;100650.19;;;10.98;50.07
66090;BME280;53113;45.602;11.904;2023-03-12T02:24:38;100657.08;;;10.98;50.12
66090;BME280;53113;45.602;11.904;2023-03-12T02:27:05;100664.42;;;10.99;50.09
66090;BME280;53113;45.602;11.904;2023-03-12T02:29:32;100667.52;;;11.01;50.10
66090;BME280;53113;45.602;11.904;2023-03-12T02:31:59;100670.84;;;11.01;50.10
66090;BME280;53113;45.602;11.904;2023-03-12T02:34:28;100669.30;;;11.00;50.34
66090;BME280;53113;45.602;11.904;2023-03-12T02:36:54;100674.95;;;11.01;50.47
66090;BME280;53113;45.602;11.904;2023-03-12T02:39:22;100680.98;;;11.01;50.39
66090;BME280;53113;45.602;11.904;2023-03-12T02:41:53;100683.13;;;11.00;50.55
66090;BME280;53113;45.602;11.904;2023-03-12T02:44:27;100685.03;;;11.01;50.59
66090;BME280;53113;45.602;11.904;2023-03-12T02:47:14;100687.06;;;11.00;50.50
66090;BME280;53113;45.602;11.904;2023-03-12T02:49:39;100691.14;;;11.00;50.51
66090;BME280;53113;45.602;11.904;2023-03-12T02:52:05;100694.14;;;11.00;50.63
66090;BME280;53113;45.602;11.904;2023-03-12T02:54:30;100697.94;;;10.99;50.62
66090;BME280;53113;45.602;11.904;2023-03-12T02:56:56;100703.02;;;11.00;50.58
66090;BME280;53113;45.602;11.904;2023-03-12T02:59:22;100708.05;;;10.99;50.48
66090;BME280;53113;45.602;11.904;2023-03-12T03:01:57;100716.50;;;10.97;50.36
66090;BME280;53113;45.602;11.904;2023-03-12T03:04:23;100718.14;;;10.97;50.33
66090;BME280;53113;45.602;11.904;2023-03-12T03:06:49;100721.87;;;10.97;50.35
66090;BME280;53113;45.602;11.904;2023-03-12T03:09:14;100726.14;;;10.97;50.19
66090;BME280;53113;45.602;11.904;2023-03-12T03:11:40;100726.34;;;10.96;50.18
66090;BME280;53113;45.602;11.904;2023-03-12T03:14:05;100732.20;;;10.96;50.07
66090;BME280;53113;45.602;11.904;2023-03-12T03:16:31;100739.59;;;10.96;49.97
66090;BME280;53113;45.602;11.904;2023-03-12T03:18:56;100738.91;;;10.96;49.96
66090;BME280;53113;45.602;11.904;2023-03-12T03:21:22;100738.17;;;10.97;49.90
66090;BME280;53113;45.602;11.904;2023-03-12T03:23:48;100745.27;;;10.96;49.83
66090;BME280;53113;45.602;11.904;2023-03-12T03:26:14;100750.41;;;10.96;49.74
66090;BME280;53113;45.602;11.904;2023-03-12T03:28:40;100763.17;;;10.96;49.67
66090;BME280;53113;45.602;11.904;2023-03-12T03:31:05;100767.08;;;10.96;49.53
66090;BME280;53113;45.602;11.904;2023-03-12T03:33:31;100770.85;;;10.95;49.56
66090;BME280;53113;45.602;11.904;2023-03-12T03:35:58;100779.39;;;10.95;49.73
66090;BME280;53113;45.602;11.904;2023-03-12T03:38:24;100781.33;;;10.95;49.86
66090;BME280;53113;45.602;11.904;2023-03-12T03:40:50;100782.13;;;10.94;49.81
66090;BME280;53113;45.602;11.904;2023-03-12T03:43:16;100785.19;;;10.93;49.65
66090;BME280;53113;45.602;11.904;2023-03-12T03:45:41;100782.87;;;10.91;49.80
66090;BME280;53113;45.602;11.904;2023-03-12T03:48:09;100785.59;;;10.90;49.80
66090;BME280;53113;45.602;11.904;2023-03-12T03:50:36;100792.77;;;10.89;49.88
66090;BME280;53113;45.602;11.904;2023-03-12T03:53:01;100794.86;;;10.88;49.95
66090;BME280;53113;45.602;11.904;2023-03-12T03:55:27;100797.70;;;10.85;49.94
66090;BME280;53113;45.602;11.904;2023-03-12T03:57:58;100796.17;;;10.81;49.71
66090;BME280;53113;45.602;11.904;2023-03-12T04:00:23;100802.66;;;10.78;49.63
66090;BME280;53113;45.602;11.904;2023-03-12T04:02:49;100811.36;;;10.75;49.43
66090;BME280;53113;45.602;11.904;2023-03-12T04:05:14;100819.22;;;10.72;49.22
66090;BME280;53113;45.602;11.904;2023-03-12T04:07:43;100828.45;;;10.69;49.26
66090;BME280;53113;45.602;11.904;2023-03-12T04:10:09;100833.76;;;10.67;49.32
66090;BME280;53113;45.602;11.904;2023-03-12T04:12:35;100836.80;;;10.64;49.21
66090;BME280;53113;45.602;11.904;2023-03-12T04:15:00;100834.75;;;10.60;49.20
66090;BME280;53113;45.602;11.904;2023-03-12T04:17:26;100843.80;;;10.60;48.94
66090;BME280;53113;45.602;11.904;2023-03-12T04:19:51;100856.61;;;10.57;48.70
66090;BME280;53113;45.602;11.904;2023-03-12T04:22:17;100857.23;;;10.53;48.52
66090;BME280;53113;45.602;11.904;2023-03-12T04:24:42;100861.58;;;10.52;48.37
66090;BME280;53113;45.602;11.904;2023-03-12T04:27:08;100868.98;;;10.50;48.49
66090;BME280;53113;45.602;11.904;2023-03-12T04:29:33;100872.50;;;10.48;48.44
66090;BME280;53113;45.602;11.904;2023-03-12T04:31:59;100869.89;;;10.45;48.50
66090;BME280;53113;45.602;11.904;2023-03-12T04:34:24;100877.71;;;10.42;48.27
66090;BME280;53113;45.602;11.904;2023-03-12T04:36:50;100881.35;;;10.38;48.19
66090;BME280;53113;45.602;11.904;2023-03-12T04:39:16;100883.54;;;10.35;48.05
66090;BME280;53113;45.602;11.904;2023-03-12T04:41:41;100891.61;;;10.31;48.00
66090;BME280;53113;45.602;11.904;2023-03-12T04:44:07;100897.15;;;10.28;48.09
66090;BME280;53113;45.602;11.904;2023-03-12T04:46:32;100899.19;;;10.24;48.19
66090;BME280;53113;45.602;11.904;2023-03-12T04:48:58;100898.82;;;10.21;48.24
66090;BME280;53113;45.602;11.904;2023-03-12T04:51:27;100904.54;;;10.18;48.26
66090;BME280;53113;45.602;11.904;2023-03-12T04:53:53;100904.81;;;10.14;48.37
66090;BME280;53113;45.602;11.904;2023-03-12T04:56:19;100912.25;;;10.11;48.29
66090;BME280;53113;45.602;11.904;2023-03-12T04:58:45;100916.27;;;10.07;48.35
66090;BME280;53113;45.602;11.904;2023-03-12T05:01:18;100923.34;;;10.05;48.49
66090;BME280;53113;45.602;11.904;2023-03-12T05:03:45;100928.95;;;10.00;48.46
66090;BME280;53113;45.602;11.904;2023-03-12T05:06:11;100929.69;;;9.97;48.58
66090;BME280;53113;45.602;11.904;2023-03-12T05:08:37;100935.51;;;9.95;48.48
66090;BME280;53113;45.602;11.904;2023-03-12T05:11:02;100933.24;;;9.92;48.54
66090;BME280;53113;45.602;11.904;2023-03-12T05:13:28;100934.76;;;9.90;48.73
66090;BME280;53113;45.602;11.904;2023-03-12T05:15:53;100939.92;;;9.88;48.62
66090;BME280;53113;45.602;11.904;2023-03-12T05:18:19;100940.31;;;9.85;48.56
66090;BME280;53113;45.602;11.904;2023-03-12T05:20:45;100944.63;;;9.81;48.60
66090;BME280;53113;45.602;11.904;2023-03-12T05:23:11;100945.04;;;9.77;48.60
66090;BME280;53113;45.602;11.904;2023-03-12T05:25:37;100944.71;;;9.72;48.66
66090;BME280;53113;45.602;11.904;2023-03-12T05:28:03;100947.39;;;9.69;48.71
66090;BME280;53113;45.602;11.904;2023-03-12T05:30:28;100949.42;;;9.63;48.69
66090;BME280;53113;45.602;11.904;2023-03-12T05:32:54;100956.27;;;9.56;48.75
66090;BME280;53113;45.602;11.904;2023-03-12T05:35:19;100964.83;;;9.52;48.73
66090;BME280;53113;45.602;11.904;2023-03-12T05:37:45;100969.56;;;9.44;48.79
66090;BME280;53113;45.602;11.904;2023-03-12T05:40:10;100976.79;;;9.37;48.80
66090;BME280;53113;45.602;11.904;2023-03-12T05:42:36;100982.64;;;9.31;48.89
66090;BME280;53113;45.602;11.904;2023-03-12T05:45:04;100979.63;;;9.23;48.86
66090;BME280;53113;45.602;11.904;2023-03-12T05:47:30;100987.16;;;9.19;48.95
66090;BME280;53113;45.602;11.904;2023-03-12T05:49:56;100987.69;;;9.13;49.04
66090;BME280;53113;45.602;11.904;2023-03-12T05:52:21;100990.02;;;9.07;49.01
66090;BME280;53113;45.602;11.904;2023-03-12T05:57:12;100996.52;;;8.97;49.13
66090;BME280;53113;45.602;11.904;2023-03-12T05:59:38;101002.14;;;8.92;49.15
66090;BME280;53113;45.602;11.904;2023-03-12T06:02:03;101004.92;;;8.87;49.36
66090;BME280;53113;45.602;11.904;2023-03-12T06:04:29;101006.55;;;8.84;49.47
66090;BME280;53113;45.602;11.904;2023-03-12T06:06:54;101013.82;;;8.81;49.72
66090;BME280;53113;45.602;11.904;2023-03-12T06:09:20;101022.68;;;8.77;49.81
66090;BME280;53113;45.602;11.904;2023-03-12T06:11:45;101027.45;;;8.75;50.02
66090;BME280;53113;45.602;11.904;2023-03-12T06:14:11;101035.96;;;8.74;50.19
66090;BME280;53113;45.602;11.904;2023-03-12T06:16:37;101040.35;;;8.77;50.64
66090;BME280;53113;45.602;11.904;2023-03-12T06:19:02;101043.05;;;8.85;51.15
66090;BME280;53113;45.602;11.904;2023-03-12T06:21:29;101045.12;;;8.97;51.67
66090;BME280;53113;45.602;11.904;2023-03-12T06:24:14;101047.31;;;9.12;51.88
66090;BME280;53113;45.602;11.904;2023-03-12T06:26:39;101050.36;;;9.33;51.99
66090;BME280;53113;45.602;11.904;2023-03-12T06:29:05;101055.92;;;9.53;52.04
66090;BME280;53113;45.602;11.904;2023-03-12T06:31:31;101058.45;;;9.74;51.83
66090;BME280;53113;45.602;11.904;2023-03-12T06:33:56;101065.49;;;9.93;51.65
66090;BME280;53113;45.602;11.904;2023-03-12T06:36:22;101070.30;;;10.08;51.26
66090;BME280;53113;45.602;11.904;2023-03-12T06:38:48;101075.61;;;10.18;50.66
66090;BME280;53113;45.602;11.904;2023-03-12T06:41:15;101073.73;;;10.25;50.34
66090;BME280;53113;45.602;11.904;2023-03-12T06:43:41;101077.63;;;10.30;50.03
66090;BME280;53113;45.602;11.904;2023-03-12T06:46:08;101086.38;;;10.35;49.83
66090;BME280;53113;45.602;11.904;2023-03-12T06:48:34;101091.30;;;10.38;49.61
66090;BME280;53113;45.602;11.904;2023-03-12T06:51:04;101091.58;;;10.39;49.34
66090;BME280;53113;45.602;11.904;2023-03-12T06:53:30;101092.05;;;10.40;49.20
66090;BME280;53113;45.602;11.904;2023-03-12T06:55:55;101099.61;;;10.40;48.92
66090;BME280;53113;45.602;11.904;2023-03-12T06:58:21;101100.98;;;10.41;48.87
66090;BME280;53113;45.602;11.904;2023-03-12T07:00:46;101104.73;;;10.43;48.53
66090;BME280;53113;45.602;11.904;2023-03-12T07:03:12;101105.39;;;10.49;48.53
66090;BME280;53113;45.602;11.904;2023-03-12T07:05:37;101111.48;;;10.63;48.61
66090;BME280;53113;45.602;11.904;2023-03-12T07:08:03;101113.20;;;10.84;48.36
66090;BME280;53113;45.602;11.904;2023-03-12T07:10:28;101113.80;;;11.10;48.00
66090;BME280;53113;45.602;11.904;2023-03-12T07:12:57;101115.37;;;11.38;47.42
66090;BME280;53113;45.602;11.904;2023-03-12T07:15:22;101112.42;;;11.68;46.95
66090;BME280;53113;45.602;11.904;2023-03-12T07:17:48;101114.79;;;11.96;46.35
66090;BME280;53113;45.602;11.904;2023-03-12T07:20:14;101118.66;;;12.23;45.62
66090;BME280;53113;45.602;11.904;2023-03-12T07:22:39;101114.75;;;12.46;44.81
66090;BME280;53113;45.602;11.904;2023-03-12T07:25:05;101121.83;;;12.67;44.02
66090;BME280;53113;45.602;11.904;2023-03-12T07:27:30;101124.98;;;12.86;43.22
66090;BME280;53113;45.602;11.904;2023-03-12T07:29:56;101122.37;;;13.02;42.56
66090;BME280;53113;45.602;11.904;2023-03-12T07:32:21;101117.23;;;13.16;42.15
66090;BME280;53113;45.602;11.904;2023-03-12T07:34:47;101116.89;;;13.29;41.46
66090;BME280;53113;45.602;11.904;2023-03-12T07:37:12;101110.46;;;13.40;40.84
66090;BME280;53113;45.602;11.904;2023-03-12T07:39:38;101111.77;;;13.50;40.59
66090;BME280;53113;45.602;11.904;2023-03-12T07:42:03;101120.02;;;13.58;40.29
66090;BME280;53113;45.602;11.904;2023-03-12T07:44:29;101125.38;;;13.63;39.89
66090;BME280;53113;45.602;11.904;2023-03-12T07:46:54;101131.33;;;13.66;39.64
66090;BME280;53113;45.602;11.904;2023-03-12T07:49:20;101135.45;;;13.70;39.82
66090;BME280;53113;45.602;11.904;2023-03-12T07:51:45;101141.64;;;13.75;39.82
66090;BME280;53113;45.602;11.904;2023-03-12T07:54:11;101148.18;;;13.82;39.68
66090;BME280;53113;45.602;11.904;2023-03-12T07:56:37;101151.79;;;13.88;39.00
66090;BME280;53113;45.602;11.904;2023-03-12T07:59:08;101158.95;;;13.95;38.72
66090;BME280;53113;45.602;11.904;2023-03-12T08:01:33;101156.95;;;14.05;38.93
66090;BME280;53113;45.602;11.904;2023-03-12T08:03:59;101154.98;;;14.15;38.90
66090;BME280;53113;45.602;11.904;2023-03-12T08:06:25;101161.48;;;14.27;38.42
66090;BME280;53113;45.602;11.904;2023-03-12T08:08:51;101163.30;;;14.41;38.10
66090;BME280;53113;45.602;11.904;2023-03-12T08:11:17;101169.38;;;14.56;37.98
66090;BME280;53113;45.602;11.904;2023-03-12T08:13:43;101173.27;;;14.71;37.88
66090;BME280;53113;45.602;11.904;2023-03-12T08:16:08;101167.04;;;14.83;37.70
66090;BME280;53113;45.602;11.904;2023-03-12T08:18:34;101169.33;;;14.94;37.82
66090;BME280;53113;45.602;11.904;2023-03-12T08:20:59;101172.08;;;15.05;37.67
66090;BME280;53113;45.602;11.904;2023-03-12T08:23:25;101169.34;;;15.16;37.57
66090;BME280;53113;45.602;11.904;2023-03-12T08:25:51;101171.79;;;15.31;37.44
66090;BME280;53113;45.602;11.904;2023-03-12T08:28:17;101176.63;;;15.49;37.20
66090;BME280;53113;45.602;11.904;2023-03-12T08:30:46;101174.20;;;15.68;36.64
66090;BME280;53113;45.602;11.904;2023-03-12T08:33:12;101176.52;;;15.90;36.24
66090;BME280;53113;45.602;11.904;2023-03-12T08:35:37;101174.08;;;16.13;36.09
66090;BME280;53113;45.602;11.904;2023-03-12T08:38:03;101169.91;;;16.32;35.67
66090;BME280;53113;45.602;11.904;2023-03-12T08:40:28;101170.96;;;16.52;35.12
66090;BME280;53113;45.602;11.904;2023-03-12T08:42:54;101167.62;;;16.69;34.86
66090;BME280;53113;45.602;11.904;2023-03-12T08:45:19;101173.09;;;16.86;34.95
66090;BME280;53113;45.602;11.904;2023-03-12T08:47:44;101174.86;;;17.04;34.80
66090;BME280;53113;45.602;11.904;2023-03-12T08:50:11;101174.29;;;17.21;34.56
66090;BME280;53113;45.602;11.904;2023-03-12T08:52:37;101177.79;;;17.44;34.33
66090;BME280;53113;45.602;11.904;2023-03-12T08:55:02;101178.61;;;17.66;33.91
66090;BME280;53113;45.602;11.904;2023-03-12T08:57:30;101178.29;;;17.93;33.43
66090;BME280;53113;45.602;11.904;2023-03-12T08:59:55;101179.42;;;18.21;33.05
66090;BME280;53113;45.602;11.904;2023-03-12T09:02:21;101176.57;;;18.49;32.64
66090;BME280;53113;45.602;11.904;2023-03-12T09:04:49;101179.40;;;18.74;32.30
66090;BME280;53113;45.602;11.904;2023-03-12T09:07:14;101180.91;;;18.98;32.01
66090;BME280;53113;45.602;11.904;2023-03-12T09:09:43;101183.37;;;19.19;31.85
66090;BME280;53113;45.602;11.904;2023-03-12T09:12:09;101184.66;;;19.41;31.70
66090;BME280;53113;45.602;11.904;2023-03-12T09:14:34;101187.64;;;19.65;31.32
66090;BME280;53113;45.602;11.904;2023-03-12T09:17:00;101186.00;;;19.89;31.13
66090;BME280;53113;45.602;11.904;2023-03-12T09:19:26;101196.67;;;20.12;30.82
66090;BME280;53113;45.602;11.904;2023-03-12T09:21:51;101196.95;;;20.32;30.30
66090;BME280;53113;45.602;11.904;2023-03-12T09:24:17;101197.90;;;20.55;30.17
66090;BME280;53113;45.602;11.904;2023-03-12T09:26:42;101196.49;;;20.79;29.81
66090;BME280;53113;45.602;11.904;2023-03-12T09:29:08;101197.41;;;21.02;29.57
66090;BME280;53113;45.602;11.904;2023-03-12T09:31:33;101198.08;;;21.22;29.15
66090;BME280;53113;45.602;11.904;2023-03-12T09:34:00;101202.30;;;21.36;28.94
66090;BME280;53113;45.602;11.904;2023-03-12T09:36:26;101207.30;;;21.49;28.75
66090;BME280;53113;45.602;11.904;2023-03-12T09:38:51;101202.77;;;21.63;28.39
66090;BME280;53113;45.602;11.904;2023-03-12T09:41:37;101198.34;;;21.77;27.95
66090;BME280;53113;45.602;11.904;2023-03-12T09:44:22;101203.73;;;21.92;27.97
66090;BME280;53113;45.602;11.904;2023-03-12T09:46:53;101205.29;;;22.08;27.61
66090;BME280;53113;45.602;11.904;2023-03-12T09:49:22;101200.69;;;22.20;27.35
66090;BME280;53113;45.602;11.904;2023-03-12T09:51:51;101201.19;;;22.31;27.22
66090;BME280;53113;45.602;11.904;2023-03-12T09:54:21;101203.52;;;22.37;27.04
66090;BME280;53113;45.602;11.904;2023-03-12T09:56:48;101203.86;;;22.43;26.85
66090;BME280;53113;45.602;11.904;2023-03-12T09:59:15;101202.90;;;22.45;26.61
66090;BME280;53113;45.602;11.904;2023-03-12T10:01:43;101201.70;;;22.49;26.44
66090;BME280;53113;45.602;11.904;2023-03-12T10:04:35;101212.48;;;22.58;26.44
66090;BME280;53113;45.602;11.904;2023-03-12T10:12:19;101204.90;;;22.59;25.99
66090;BME280;53113;45.602;11.904;2023-03-12T10:20:19;101203.06;;;22.24;25.38
66090;BME280;53113;45.602;11.904;2023-03-12T10:22:51;101202.96;;;22.08;25.58
66090;BME280;53113;45.602;11.904;2023-03-12T10:25:21;101205.28;;;21.94;25.16
66090;BME280;53113;45.602;11.904;2023-03-12T10:27:49;101199.36;;;21.80;25.39
66090;BME280;53113;45.602;11.904;2023-03-12T10:30:23;101200.52;;;21.72;25.50
66090;BME280;53113;45.602;11.904;2023-03-12T10:32:54;101205.63;;;21.67;25.40
66090;BME280;53113;45.602;11.904;2023-03-12T10:35:22;101206.34;;;21.70;25.91
66090;BME280;53113;45.602;11.904;2023-03-12T10:37:49;101204.20;;;21.75;25.76
66090;BME280;53113;45.602;11.904;2023-03-12T10:40:17;101203.73;;;21.78;25.47
66090;BME280;53113;45.602;11.904;2023-03-12T10:42:43;101205.42;;;21.84;25.31
66090;BME280;53113;45.602;11.904;2023-03-12T10:47:37;101205.23;;;22.02;25.63
66090;BME280;53113;45.602;11.904;2023-03-12T10:52:37;101205.79;;;22.21;25.13
66090;BME280;53113;45.602;11.904;2023-03-12T10:55:09;101212.91;;;22.28;25.06
66090;BME280;53113;45.602;11.904;2023-03-12T10:57:39;101209.94;;;22.36;25.08
66090;BME280;53113;45.602;11.904;2023-03-12T11:00:06;101210.55;;;22.48;25.10
66090;BME280;53113;45.602;11.904;2023-03-12T11:02:34;101217.50;;;22.61;25.01
66090;BME280;53113;45.602;11.904;2023-03-12T11:05:16;101218.09;;;22.69;24.82
66090;BME280;53113;45.602;11.904;2023-03-12T11:07:43;101217.48;;;22.78;24.85
66090;BME280;53113;45.602;11.904;2023-03-12T11:12:35;101217.77;;;22.99;24.68
66090;BME280;53113;45.602;11.904;2023-03-12T11:17:44;101219.17;;;23.31;24.27
66090;BME280;53113;45.602;11.904;2023-03-12T11:22:47;101225.43;;;23.62;24.10
66090;BME280;53113;45.602;11.904;2023-03-12T11:25:26;101227.08;;;23.74;23.94
66090;BME280;53113;45.602;11.904;2023-03-12T11:27:55;101225.98;;;23.86;23.69
66090;BME280;53113;45.602;11.904;2023-03-12T11:30:35;101221.77;;;23.95;23.65
66090;BME280;53113;45.602;11.904;2023-03-12T11:33:01;101224.30;;;24.08;23.68
66090;BME280;53113;45.602;11.904;2023-03-12T11:35:41;101227.84;;;24.21;23.58
66090;BME280;53113;45.602;11.904;2023-03-12T11:38:15;101231.07;;;24.35;23.59
66090;BME280;53113;45.602;11.904;2023-03-12T11:40:59;101234.24;;;24.47;23.41
66090;BME280;53113;45.602;11.904;2023-03-12T12:06:45;101212.73;;;26.50;21.76
66090;BME280;53113;45.602;11.904;2023-03-12T12:09:23;101218.79;;;26.65;21.77
66090;BME280;53113;45.602;11.904;2023-03-12T12:25:21;101211.57;;;27.10;20.37
66090;BME280;53113;45.602;11.904;2023-03-12T12:30:48;101204.30;;;27.16;20.41
66090;BME280;53113;45.602;11.904;2023-03-12T12:35:52;101203.91;;;27.27;20.23
66090;BME280;53113;45.602;11.904;2023-03-12T12:43:27;101204.29;;;27.52;20.00
66090;BME280;53113;45.602;11.904;2023-03-12T12:45:55;101208.25;;;27.64;20.04
66090;BME280;53113;45.602;11.904;2023-03-12T12:50:47;101201.83;;;27.82;19.93
66090;BME280;53113;45.602;11.904;2023-03-12T12:53:22;101199.93;;;27.87;19.72
66090;BME280;53113;45.602;11.904;2023-03-12T12:59:03;101196.80;;;27.81;19.54
66090;BME280;53113;45.602;11.904;2023-03-12T13:01:00;101196.37;;;27.74;19.63
66090;BME280;53113;45.602;11.904;2023-03-12T13:03:26;101199.83;;;27.69;19.72
66090;BME280;53113;45.602;11.904;2023-03-12T13:08:31;101199.67;;;27.77;19.85
66090;BME280;53113;45.602;11.904;2023-03-12T13:10:57;101203.24;;;27.88;19.53
66090;BME280;53113;45.602;11.904;2023-03-12T13:13:23;101198.43;;;27.97;19.40
66090;BME280;53113;45.602;11.904;2023-03-12T13:15:49;101194.46;;;28.07;19.27
66090;BME280;53113;45.602;11.904;2023-03-12T13:18:32;101193.23;;;28.22;19.50
66090;BME280;53113;45.602;11.904;2023-03-12T13:33:42;101188.85;;;29.07;18.85
66090;BME280;53113;45.602;11.904;2023-03-12T13:38:54;101189.64;;;29.30;18.92
66090;BME280;53113;45.602;11.904;2023-03-12T13:49:34;101216.36;;;29.62;18.43
66090;BME280;53113;45.602;11.904;2023-03-12T13:54:42;101205.70;;;29.75;18.33
66090;BME280;53113;45.602;11.904;2023-03-12T13:57:51;101206.94;;;29.85;18.23
66090;BME280;53113;45.602;11.904;2023-03-12T13:59:57;101214.38;;;29.93;17.91
66090;BME280;53113;45.602;11.904;2023-03-12T14:02:30;101216.98;;;29.96;17.91
66090;BME280;53113;45.602;11.904;2023-03-12T14:05:07;101212.79;;;29.97;17.79
66090;BME280;53113;45.602;11.904;2023-03-12T14:07:44;101204.10;;;30.01;17.80
66090;BME280;53113;45.602;11.904;2023-03-12T14:13:04;101199.48;;;30.12;17.76
66090;BME280;53113;45.602;11.904;2023-03-12T14:17:59;101203.11;;;30.19;17.70
66090;BME280;53113;45.602;11.904;2023-03-12T14:20:26;101209.32;;;30.23;17.76
66090;BME280;53113;45.602;11.904;2023-03-12T14:23:05;101211.20;;;30.30;17.81
66090;BME280;53113;45.602;11.904;2023-03-12T14:28:01;101199.48;;;30.46;17.51
66090;BME280;53113;45.602;11.904;2023-03-12T14:33:12;101204.98;;;30.40;17.37
66090;BME280;53113;45.602;11.904;2023-03-12T14:35:40;101206.55;;;30.32;17.31
66090;BME280;53113;45.602;11.904;2023-03-12T14:41:04;101201.16;;;30.06;17.30
66090;BME280;53113;45.602;11.904;2023-03-12T14:43:37;101201.90;;;29.87;17.29
66090;BME280;53113;45.602;11.904;2023-03-12T14:46:04;101209.91;;;29.68;17.34
66090;BME280;53113;45.602;11.904;2023-03-12T14:48:32;101214.94;;;29.46;17.44
66090;BME280;53113;45.602;11.904;2023-03-12T14:50:58;101212.61;;;29.23;17.62
66090;BME280;53113;45.602;11.904;2023-03-12T14:56:00;101208.01;;;28.78;18.27
66090;BME280;53113;45.602;11.904;2023-03-12T14:58:26;101210.33;;;28.54;18.44